sensor_id;sensor_type;location;lat;lon;timestamp;P1;durP1;ratioP1;P2;durP2;ratioP2
70169;SDS011;57543;45.442;9.212;2022-11-15T00:01:40;21.10;;;13.30;;
70169;SDS011;57543;45.442;9.212;2022-11-15T00:05:02;23.37;;;12.60;;
70169;SDS011;57543;45.442;9.212;2022-11-15T00:08:28;22.40;;;12.52;;
70169;SDS011;57543;45.442;9.212;2022-11-15T00:11:51;20.77;;;12.38;;
70169;SDS011;57543;45.442;9.212;2022-11-15T00:15:13;22.17;;;12.80;;
70169;SDS011;57543;45.442;9.212;2022-11-15T00:18:37;23.27;;;13.20;;
70169;SDS011;57543;45.442;9.212;2022-11-15T00:22:00;22.83;;;13.27;;
70169;SDS011;57543;45.442;9.212;2022-11-15T00:25:22;23.92;;;13.15;;
70169;SDS011;57543;45.442;9.212;2022-11-15T00:28:44;22.17;;;13.13;;
70169;SDS011;57543;45.442;9.212;2022-11-15T00:32:06;22.80;;;12.60;;
70169;SDS011;57543;45.442;9.212;2022-11-15T00:35:31;21.58;;;12.85;;
70169;SDS011;57543;45.442;9.212;2022-11-15T00:38:54;21.80;;;12.57;;
70169;SDS011;57543;45.442;9.212;2022-11-15T00:42:17;22.02;;;13.25;;
70169;SDS011;57543;45.442;9.212;2022-11-15T00:45:39;22.25;;;12.50;;
70169;SDS011;57543;45.442;9.212;2022-11-15T00:49:01;21.88;;;13.15;;
70169;SDS011;57543;45.442;9.212;2022-11-15T00:52:23;21.23;;;12.55;;
70169;SDS011;57543;45.442;9.212;2022-11-15T00:55:46;20.07;;;12.13;;
70169;SDS011;57543;45.442;9.212;2022-11-15T00:59:08;21.95;;;12.48;;
70169;SDS011;57543;45.442;9.212;2022-11-15T01:02:33;20.33;;;12.55;;
70169;SDS011;57543;45.442;9.212;2022-11-15T01:05:58;20.33;;;12.13;;
70169;SDS011;57543;45.442;9.212;2022-11-15T01:09:21;19.50;;;12.23;;
70169;SDS011;57543;45.442;9.212;2022-11-15T01:12:43;22.27;;;12.87;;
70169;SDS011;57543;45.442;9.212;2022-11-15T01:16:13;19.58;;;11.88;;
70169;SDS011;57543;45.442;9.212;2022-11-15T01:19:38;19.60;;;11.65;;
70169;SDS011;57543;45.442;9.212;2022-11-15T01:23:00;18.77;;;11.65;;
70169;SDS011;57543;45.442;9.212;2022-11-15T01:26:25;19.50;;;11.88;;
70169;SDS011;57543;45.442;9.212;2022-11-15T01:29:48;19.20;;;11.50;;
70169;SDS011;57543;45.442;9.212;2022-11-15T01:33:10;19.55;;;11.40;;
70169;SDS011;57543;45.442;9.212;2022-11-15T01:36:33;17.50;;;11.50;;
70169;SDS011;57543;45.442;9.212;2022-11-15T01:39:55;16.80;;;10.88;;
70169;SDS011;57543;45.442;9.212;2022-11-15T01:43:21;19.20;;;11.40;;
70169;SDS011;57543;45.442;9.212;2022-11-15T01:46:46;17.87;;;11.13;;
70169;SDS011;57543;45.442;9.212;2022-11-15T01:50:10;18.55;;;11.02;;
70169;SDS011;57543;45.442;9.212;2022-11-15T01:53:34;19.08;;;12.32;;
70169;SDS011;57543;45.442;9.212;2022-11-15T01:57:03;20.35;;;12.02;;
70169;SDS011;57543;45.442;9.212;2022-11-15T02:00:29;18.65;;;11.15;;
70169;SDS011;57543;45.442;9.212;2022-11-15T02:03:58;21.57;;;12.30;;
70169;SDS011;57543;45.442;9.212;2022-11-15T02:07:23;21.15;;;12.55;;
70169;SDS011;57543;45.442;9.212;2022-11-15T02:10:47;20.70;;;13.15;;
70169;SDS011;57543;45.442;9.212;2022-11-15T02:14:11;19.75;;;12.70;;
70169;SDS011;57543;45.442;9.212;2022-11-15T02:21:06;19.77;;;11.93;;
70169;SDS011;57543;45.442;9.212;2022-11-15T02:28:33;19.75;;;11.65;;
70169;SDS011;57543;45.442;9.212;2022-11-15T02:39:10;18.10;;;11.33;;
70169;SDS011;57543;45.442;9.212;2022-11-15T02:42:39;16.08;;;10.00;;
70169;SDS011;57543;45.442;9.212;2022-11-15T02:46:40;15.68;;;10.00;;
70169;SDS011;57543;45.442;9.212;2022-11-15T02:50:27;15.50;;;10.25;;
70169;SDS011;57543;45.442;9.212;2022-11-15T02:53:51;16.48;;;10.75;;
70169;SDS011;57543;45.442;9.212;2022-11-15T02:57:14;15.47;;;9.97;;
70169;SDS011;57543;45.442;9.212;2022-11-15T03:01:00;14.73;;;9.98;;
70169;SDS011;57543;45.442;9.212;2022-11-15T03:12:30;15.80;;;10.07;;
70169;SDS011;57543;45.442;9.212;2022-11-15T03:20:03;14.90;;;10.20;;
70169;SDS011;57543;45.442;9.212;2022-11-15T03:23:26;15.95;;;10.43;;
70169;SDS011;57543;45.442;9.212;2022-11-15T03:26:52;16.48;;;10.82;;
70169;SDS011;57543;45.442;9.212;2022-11-15T03:30:17;15.98;;;10.75;;
70169;SDS011;57543;45.442;9.212;2022-11-15T03:33:40;15.37;;;10.80;;
70169;SDS011;57543;45.442;9.212;2022-11-15T03:37:02;16.17;;;10.35;;
70169;SDS011;57543;45.442;9.212;2022-11-15T03:47:41;15.27;;;10.38;;
70169;SDS011;57543;45.442;9.212;2022-11-15T03:51:08;18.00;;;10.33;;
70169;SDS011;57543;45.442;9.212;2022-11-15T03:54:32;16.52;;;10.77;;
70169;SDS011;57543;45.442;9.212;2022-11-15T03:57:56;16.55;;;10.68;;
70169;SDS011;57543;45.442;9.212;2022-11-15T04:01:20;17.27;;;10.68;;
70169;SDS011;57543;45.442;9.212;2022-11-15T04:04:43;16.23;;;10.80;;
70169;SDS011;57543;45.442;9.212;2022-11-15T04:08:05;16.07;;;9.73;;
70169;SDS011;57543;45.442;9.212;2022-11-15T04:11:28;16.13;;;10.45;;
70169;SDS011;57543;45.442;9.212;2022-11-15T04:14:50;15.18;;;9.57;;
70169;SDS011;57543;45.442;9.212;2022-11-15T04:18:29;18.55;;;10.80;;
70169;SDS011;57543;45.442;9.212;2022-11-15T04:21:51;18.83;;;11.27;;
70169;SDS011;57543;45.442;9.212;2022-11-15T04:25:33;17.63;;;11.13;;
70169;SDS011;57543;45.442;9.212;2022-11-15T04:28:55;17.20;;;10.57;;
70169;SDS011;57543;45.442;9.212;2022-11-15T04:32:36;18.77;;;11.65;;
70169;SDS011;57543;45.442;9.212;2022-11-15T04:35:59;18.48;;;11.50;;
70169;SDS011;57543;45.442;9.212;2022-11-15T04:39:40;15.45;;;9.90;;
70169;SDS011;57543;45.442;9.212;2022-11-15T04:43:04;17.87;;;11.10;;
70169;SDS011;57543;45.442;9.212;2022-11-15T04:46:26;15.57;;;10.25;;
70169;SDS011;57543;45.442;9.212;2022-11-15T04:49:49;16.17;;;10.30;;
70169;SDS011;57543;45.442;9.212;2022-11-15T04:53:11;15.82;;;9.77;;
70169;SDS011;57543;45.442;9.212;2022-11-15T04:56:34;16.08;;;9.93;;
70169;SDS011;57543;45.442;9.212;2022-11-15T04:59:56;14.10;;;10.07;;
70169;SDS011;57543;45.442;9.212;2022-11-15T05:03:19;16.23;;;10.02;;
70169;SDS011;57543;45.442;9.212;2022-11-15T05:07:00;15.82;;;9.80;;
70169;SDS011;57543;45.442;9.212;2022-11-15T05:10:23;14.82;;;9.40;;
70169;SDS011;57543;45.442;9.212;2022-11-15T05:13:45;14.32;;;9.65;;
70169;SDS011;57543;45.442;9.212;2022-11-15T05:17:07;14.50;;;9.73;;
70169;SDS011;57543;45.442;9.212;2022-11-15T05:20:30;14.20;;;9.85;;
70169;SDS011;57543;45.442;9.212;2022-11-15T05:23:52;14.93;;;10.05;;
70169;SDS011;57543;45.442;9.212;2022-11-15T05:27:15;14.23;;;9.75;;
70169;SDS011;57543;45.442;9.212;2022-11-15T05:30:37;16.25;;;10.65;;
70169;SDS011;57543;45.442;9.212;2022-11-15T05:34:04;17.27;;;10.33;;
70169;SDS011;57543;45.442;9.212;2022-11-15T05:37:28;16.05;;;10.38;;
70169;SDS011;57543;45.442;9.212;2022-11-15T05:40:51;17.98;;;11.23;;
70169;SDS011;57543;45.442;9.212;2022-11-15T05:44:15;17.08;;;10.50;;
70169;SDS011;57543;45.442;9.212;2022-11-15T05:47:40;17.27;;;10.85;;
70169;SDS011;57543;45.442;9.212;2022-11-15T05:51:03;16.37;;;10.37;;
70169;SDS011;57543;45.442;9.212;2022-11-15T05:54:28;13.98;;;9.20;;
70169;SDS011;57543;45.442;9.212;2022-11-15T05:57:50;16.95;;;10.18;;
70169;SDS011;57543;45.442;9.212;2022-11-15T06:01:13;14.50;;;9.45;;
70169;SDS011;57543;45.442;9.212;2022-11-15T06:04:36;15.70;;;9.88;;
70169;SDS011;57543;45.442;9.212;2022-11-15T06:07:58;15.53;;;9.43;;
70169;SDS011;57543;45.442;9.212;2022-11-15T06:11:20;15.65;;;9.93;;
70169;SDS011;57543;45.442;9.212;2022-11-15T06:14:42;15.43;;;10.07;;
70169;SDS011;57543;45.442;9.212;2022-11-15T06:18:05;15.73;;;9.93;;
70169;SDS011;57543;45.442;9.212;2022-11-15T06:21:27;15.70;;;9.57;;
70169;SDS011;57543;45.442;9.212;2022-11-15T06:24:50;16.03;;;10.30;;
70169;SDS011;57543;45.442;9.212;2022-11-15T06:28:12;14.57;;;9.85;;
70169;SDS011;57543;45.442;9.212;2022-11-15T06:31:35;16.52;;;9.85;;
70169;SDS011;57543;45.442;9.212;2022-11-15T06:34:58;15.27;;;9.93;;
70169;SDS011;57543;45.442;9.212;2022-11-15T06:38:20;16.30;;;10.05;;
70169;SDS011;57543;45.442;9.212;2022-11-15T06:41:42;16.60;;;9.63;;
70169;SDS011;57543;45.442;9.212;2022-11-15T06:45:05;15.95;;;9.90;;
70169;SDS011;57543;45.442;9.212;2022-11-15T06:48:28;16.15;;;10.48;;
70169;SDS011;57543;45.442;9.212;2022-11-15T06:51:51;15.80;;;10.52;;
70169;SDS011;57543;45.442;9.212;2022-11-15T06:55:14;16.63;;;10.63;;
70169;SDS011;57543;45.442;9.212;2022-11-15T06:58:36;17.67;;;10.70;;
70169;SDS011;57543;45.442;9.212;2022-11-15T07:01:58;17.27;;;10.93;;
70169;SDS011;57543;45.442;9.212;2022-11-15T07:05:20;17.15;;;11.75;;
70169;SDS011;57543;45.442;9.212;2022-11-15T07:08:42;18.25;;;11.05;;
70169;SDS011;57543;45.442;9.212;2022-11-15T07:12:05;20.05;;;11.98;;
70169;SDS011;57543;45.442;9.212;2022-11-15T07:15:27;16.93;;;11.47;;
70169;SDS011;57543;45.442;9.212;2022-11-15T07:18:50;16.23;;;10.05;;
70169;SDS011;57543;45.442;9.212;2022-11-15T07:22:15;16.17;;;10.73;;
70169;SDS011;57543;45.442;9.212;2022-11-15T07:25:37;18.05;;;10.65;;
70169;SDS011;57543;45.442;9.212;2022-11-15T07:29:00;18.08;;;10.63;;
70169;SDS011;57543;45.442;9.212;2022-11-15T07:32:21;16.97;;;10.20;;
70169;SDS011;57543;45.442;9.212;2022-11-15T07:35:44;16.13;;;10.40;;
70169;SDS011;57543;45.442;9.212;2022-11-15T07:39:08;18.25;;;10.55;;
70169;SDS011;57543;45.442;9.212;2022-11-15T07:42:31;18.27;;;10.52;;
70169;SDS011;57543;45.442;9.212;2022-11-15T07:46:12;18.65;;;10.52;;
70169;SDS011;57543;45.442;9.212;2022-11-15T07:49:34;18.83;;;10.40;;
70169;SDS011;57543;45.442;9.212;2022-11-15T07:52:57;19.42;;;11.20;;
70169;SDS011;57543;45.442;9.212;2022-11-15T07:56:23;17.45;;;10.95;;
70169;SDS011;57543;45.442;9.212;2022-11-15T07:59:45;19.63;;;10.65;;
70169;SDS011;57543;45.442;9.212;2022-11-15T08:03:08;18.52;;;10.68;;
70169;SDS011;57543;45.442;9.212;2022-11-15T08:06:32;18.33;;;11.10;;
70169;SDS011;57543;45.442;9.212;2022-11-15T08:09:54;20.33;;;10.98;;
70169;SDS011;57543;45.442;9.212;2022-11-15T08:13:17;19.05;;;11.30;;
70169;SDS011;57543;45.442;9.212;2022-11-15T08:16:39;19.50;;;10.23;;
70169;SDS011;57543;45.442;9.212;2022-11-15T08:20:01;17.58;;;10.65;;
70169;SDS011;57543;45.442;9.212;2022-11-15T08:23:24;15.00;;;9.83;;
70169;SDS011;57543;45.442;9.212;2022-11-15T08:26:47;17.90;;;10.90;;
70169;SDS011;57543;45.442;9.212;2022-11-15T08:30:09;18.00;;;11.70;;
70169;SDS011;57543;45.442;9.212;2022-11-15T08:33:33;17.17;;;11.05;;
70169;SDS011;57543;45.442;9.212;2022-11-15T08:36:55;18.05;;;10.90;;
70169;SDS011;57543;45.442;9.212;2022-11-15T08:40:17;18.33;;;11.20;;
70169;SDS011;57543;45.442;9.212;2022-11-15T08:43:40;19.95;;;11.93;;
70169;SDS011;57543;45.442;9.212;2022-11-15T08:47:02;18.92;;;11.45;;
70169;SDS011;57543;45.442;9.212;2022-11-15T08:50:25;18.48;;;11.38;;
70169;SDS011;57543;45.442;9.212;2022-11-15T08:53:47;19.15;;;11.50;;
70169;SDS011;57543;45.442;9.212;2022-11-15T08:57:13;19.63;;;11.27;;
70169;SDS011;57543;45.442;9.212;2022-11-15T09:00:35;21.23;;;11.50;;
70169;SDS011;57543;45.442;9.212;2022-11-15T09:03:57;19.00;;;11.50;;
70169;SDS011;57543;45.442;9.212;2022-11-15T09:07:19;18.90;;;11.20;;
70169;SDS011;57543;45.442;9.212;2022-11-15T09:10:42;18.00;;;11.18;;
70169;SDS011;57543;45.442;9.212;2022-11-15T09:14:04;17.03;;;11.17;;
70169;SDS011;57543;45.442;9.212;2022-11-15T09:17:27;19.23;;;12.25;;
70169;SDS011;57543;45.442;9.212;2022-11-15T09:20:49;19.35;;;11.77;;
70169;SDS011;57543;45.442;9.212;2022-11-15T09:24:12;20.40;;;12.00;;
70169;SDS011;57543;45.442;9.212;2022-11-15T09:27:34;19.85;;;12.45;;
70169;SDS011;57543;45.442;9.212;2022-11-15T09:31:01;19.70;;;12.47;;
70169;SDS011;57543;45.442;9.212;2022-11-15T09:34:25;21.70;;;12.98;;
70169;SDS011;57543;45.442;9.212;2022-11-15T09:37:48;24.20;;;13.45;;
70169;SDS011;57543;45.442;9.212;2022-11-15T09:44:44;23.58;;;14.02;;
70169;SDS011;57543;45.442;9.212;2022-11-15T09:51:47;22.20;;;13.77;;
70169;SDS011;57543;45.442;9.212;2022-11-15T09:54:53;22.63;;;14.40;;
70169;SDS011;57543;45.442;9.212;2022-11-15T09:58:07;23.33;;;14.40;;
70169;SDS011;57543;45.442;9.212;2022-11-15T10:01:24;22.98;;;13.90;;
70169;SDS011;57543;45.442;9.212;2022-11-15T10:04:32;22.17;;;14.37;;
70169;SDS011;57543;45.442;9.212;2022-11-15T10:11:08;23.23;;;14.73;;
70169;SDS011;57543;45.442;9.212;2022-11-15T10:14:15;24.38;;;14.48;;
70169;SDS011;57543;45.442;9.212;2022-11-15T10:20:40;22.43;;;13.27;;
70169;SDS011;57543;45.442;9.212;2022-11-15T10:23:50;20.90;;;13.70;;
70169;SDS011;57543;45.442;9.212;2022-11-15T10:26:54;23.00;;;14.50;;
70169;SDS011;57543;45.442;9.212;2022-11-15T10:29:59;23.67;;;13.82;;
70169;SDS011;57543;45.442;9.212;2022-11-15T10:33:11;22.58;;;14.05;;
70169;SDS011;57543;45.442;9.212;2022-11-15T10:36:29;25.30;;;14.53;;
70169;SDS011;57543;45.442;9.212;2022-11-15T10:39:32;23.52;;;14.13;;
70169;SDS011;57543;45.442;9.212;2022-11-15T10:42:39;22.52;;;14.30;;
70169;SDS011;57543;45.442;9.212;2022-11-15T10:45:44;21.88;;;13.93;;
70169;SDS011;57543;45.442;9.212;2022-11-15T10:48:49;24.20;;;14.50;;
70169;SDS011;57543;45.442;9.212;2022-11-15T10:51:53;25.33;;;14.80;;
70169;SDS011;57543;45.442;9.212;2022-11-15T10:55:01;24.13;;;13.95;;
70169;SDS011;57543;45.442;9.212;2022-11-15T10:58:20;24.90;;;14.55;;
70169;SDS011;57543;45.442;9.212;2022-11-15T11:01:30;22.15;;;13.00;;
70169;SDS011;57543;45.442;9.212;2022-11-15T11:04:49;18.73;;;10.77;;
70169;SDS011;57543;45.442;9.212;2022-11-15T11:08:01;18.17;;;10.07;;
70169;SDS011;57543;45.442;9.212;2022-11-15T11:11:14;16.83;;;10.10;;
70169;SDS011;57543;45.442;9.212;2022-11-15T11:14:25;17.52;;;10.10;;
70169;SDS011;57543;45.442;9.212;2022-11-15T11:21:09;17.63;;;9.95;;
70169;SDS011;57543;45.442;9.212;2022-11-15T11:24:20;18.53;;;10.70;;
70169;SDS011;57543;45.442;9.212;2022-11-15T11:27:40;17.83;;;10.27;;
70169;SDS011;57543;45.442;9.212;2022-11-15T11:37:50;19.23;;;11.68;;
70169;SDS011;57543;45.442;9.212;2022-11-15T11:44:15;20.58;;;11.75;;
70169;SDS011;57543;45.442;9.212;2022-11-15T11:47:37;20.55;;;11.38;;
70169;SDS011;57543;45.442;9.212;2022-11-15T11:50:56;27.67;;;13.75;;
70169;SDS011;57543;45.442;9.212;2022-11-15T11:57:38;27.50;;;14.83;;
70169;SDS011;57543;45.442;9.212;2022-11-15T12:00:53;25.15;;;14.48;;
70169;SDS011;57543;45.442;9.212;2022-11-15T12:07:15;27.70;;;15.50;;
70169;SDS011;57543;45.442;9.212;2022-11-15T12:10:23;25.85;;;14.25;;
70169;SDS011;57543;45.442;9.212;2022-11-15T12:13:29;26.30;;;15.10;;
70169;SDS011;57543;45.442;9.212;2022-11-15T12:16:37;25.08;;;14.38;;
70169;SDS011;57543;45.442;9.212;2022-11-15T12:19:44;23.40;;;13.85;;
70169;SDS011;57543;45.442;9.212;2022-11-15T12:26:23;23.35;;;14.75;;
70169;SDS011;57543;45.442;9.212;2022-11-15T12:29:34;28.13;;;15.60;;
70169;SDS011;57543;45.442;9.212;2022-11-15T12:32:52;28.25;;;15.90;;
70169;SDS011;57543;45.442;9.212;2022-11-15T12:36:02;28.77;;;16.40;;
70169;SDS011;57543;45.442;9.212;2022-11-15T12:39:11;28.52;;;16.20;;
70169;SDS011;57543;45.442;9.212;2022-11-15T12:45:26;29.70;;;15.93;;
70169;SDS011;57543;45.442;9.212;2022-11-15T12:54:55;26.27;;;15.82;;
70169;SDS011;57543;45.442;9.212;2022-11-15T12:58:24;31.75;;;15.45;;
70169;SDS011;57543;45.442;9.212;2022-11-15T13:04:36;28.08;;;15.40;;
70169;SDS011;57543;45.442;9.212;2022-11-15T13:10:44;26.92;;;14.25;;
70169;SDS011;57543;45.442;9.212;2022-11-15T13:13:47;25.70;;;14.82;;
70169;SDS011;57543;45.442;9.212;2022-11-15T13:16:58;26.77;;;15.10;;
70169;SDS011;57543;45.442;9.212;2022-11-15T13:23:19;25.90;;;14.57;;
70169;SDS011;57543;45.442;9.212;2022-11-15T13:26:25;26.05;;;14.85;;
70169;SDS011;57543;45.442;9.212;2022-11-15T13:29:29;25.90;;;14.82;;
70169;SDS011;57543;45.442;9.212;2022-11-15T13:32:33;24.87;;;14.57;;
70169;SDS011;57543;45.442;9.212;2022-11-15T13:35:38;27.67;;;14.02;;
70169;SDS011;57543;45.442;9.212;2022-11-15T13:38:44;23.55;;;13.98;;
70169;SDS011;57543;45.442;9.212;2022-11-15T13:41:49;24.77;;;14.00;;
70169;SDS011;57543;45.442;9.212;2022-11-15T13:44:55;25.52;;;13.80;;
70169;SDS011;57543;45.442;9.212;2022-11-15T13:48:02;24.10;;;13.33;;
70169;SDS011;57543;45.442;9.212;2022-11-15T13:51:08;22.73;;;13.07;;
70169;SDS011;57543;45.442;9.212;2022-11-15T13:54:38;23.33;;;14.05;;
70169;SDS011;57543;45.442;9.212;2022-11-15T13:57:53;24.42;;;13.20;;
70169;SDS011;57543;45.442;9.212;2022-11-15T14:01:03;21.45;;;12.82;;
70169;SDS011;57543;45.442;9.212;2022-11-15T14:04:09;20.23;;;12.37;;
70169;SDS011;57543;45.442;9.212;2022-11-15T14:07:18;18.98;;;11.65;;
70169;SDS011;57543;45.442;9.212;2022-11-15T14:10:31;21.20;;;11.80;;
70169;SDS011;57543;45.442;9.212;2022-11-15T14:13:40;19.33;;;10.02;;
70169;SDS011;57543;45.442;9.212;2022-11-15T14:16:44;18.83;;;10.27;;
70169;SDS011;57543;45.442;9.212;2022-11-15T14:19:50;15.97;;;9.60;;
70169;SDS011;57543;45.442;9.212;2022-11-15T14:22:55;14.82;;;8.82;;
70169;SDS011;57543;45.442;9.212;2022-11-15T14:26:11;14.65;;;8.50;;
70169;SDS011;57543;45.442;9.212;2022-11-15T14:29:33;13.57;;;8.18;;
70169;SDS011;57543;45.442;9.212;2022-11-15T14:32:42;13.65;;;8.30;;
70169;SDS011;57543;45.442;9.212;2022-11-15T14:35:51;14.63;;;8.45;;
70169;SDS011;57543;45.442;9.212;2022-11-15T14:38:56;14.25;;;7.68;;
70169;SDS011;57543;45.442;9.212;2022-11-15T14:42:00;15.40;;;7.55;;
70169;SDS011;57543;45.442;9.212;2022-11-15T14:45:09;14.45;;;8.25;;
70169;SDS011;57543;45.442;9.212;2022-11-15T14:48:16;14.35;;;7.93;;
70169;SDS011;57543;45.442;9.212;2022-11-15T14:51:20;14.57;;;8.27;;
70169;SDS011;57543;45.442;9.212;2022-11-15T14:54:24;15.07;;;8.13;;
70169;SDS011;57543;45.442;9.212;2022-11-15T14:57:28;17.05;;;8.40;;
70169;SDS011;57543;45.442;9.212;2022-11-15T15:00:32;15.77;;;8.77;;
70169;SDS011;57543;45.442;9.212;2022-11-15T15:03:36;14.15;;;8.38;;
70169;SDS011;57543;45.442;9.212;2022-11-15T15:06:40;14.27;;;8.13;;
70169;SDS011;57543;45.442;9.212;2022-11-15T15:09:44;15.25;;;8.55;;
70169;SDS011;57543;45.442;9.212;2022-11-15T15:12:48;13.50;;;7.88;;
70169;SDS011;57543;45.442;9.212;2022-11-15T15:15:52;13.27;;;7.65;;
70169;SDS011;57543;45.442;9.212;2022-11-15T15:18:55;14.65;;;8.63;;
70169;SDS011;57543;45.442;9.212;2022-11-15T15:21:59;14.33;;;8.03;;
70169;SDS011;57543;45.442;9.212;2022-11-15T15:25:07;12.82;;;7.38;;
70169;SDS011;57543;45.442;9.212;2022-11-15T15:28:22;12.75;;;7.68;;
70169;SDS011;57543;45.442;9.212;2022-11-15T15:31:26;13.65;;;7.15;;
70169;SDS011;57543;45.442;9.212;2022-11-15T15:34:30;12.13;;;6.47;;
70169;SDS011;57543;45.442;9.212;2022-11-15T15:37:34;15.10;;;7.17;;
70169;SDS011;57543;45.442;9.212;2022-11-15T15:40:38;12.55;;;6.95;;
70169;SDS011;57543;45.442;9.212;2022-11-15T15:43:42;12.70;;;7.50;;
70169;SDS011;57543;45.442;9.212;2022-11-15T15:46:47;13.80;;;8.02;;
70169;SDS011;57543;45.442;9.212;2022-11-15T15:49:51;15.52;;;8.43;;
70169;SDS011;57543;45.442;9.212;2022-11-15T15:52:56;14.47;;;8.50;;
70169;SDS011;57543;45.442;9.212;2022-11-15T15:56:01;17.05;;;9.68;;
70169;SDS011;57543;45.442;9.212;2022-11-15T15:59:04;15.98;;;8.52;;
70169;SDS011;57543;45.442;9.212;2022-11-15T16:02:14;15.88;;;8.23;;
70169;SDS011;57543;45.442;9.212;2022-11-15T16:05:18;13.68;;;7.68;;
70169;SDS011;57543;45.442;9.212;2022-11-15T16:08:22;13.67;;;7.67;;
70169;SDS011;57543;45.442;9.212;2022-11-15T16:11:27;13.13;;;7.65;;
70169;SDS011;57543;45.442;9.212;2022-11-15T16:14:30;16.20;;;8.35;;
70169;SDS011;57543;45.442;9.212;2022-11-15T16:17:37;13.88;;;8.05;;
70169;SDS011;57543;45.442;9.212;2022-11-15T16:23:52;15.53;;;8.60;;
70169;SDS011;57543;45.442;9.212;2022-11-15T16:26:56;17.23;;;8.90;;
70169;SDS011;57543;45.442;9.212;2022-11-15T16:30:00;15.50;;;8.52;;
70169;SDS011;57543;45.442;9.212;2022-11-15T16:33:03;13.10;;;7.47;;
70169;SDS011;57543;45.442;9.212;2022-11-15T16:36:24;12.85;;;7.25;;
70169;SDS011;57543;45.442;9.212;2022-11-15T16:39:29;13.83;;;7.00;;
70169;SDS011;57543;45.442;9.212;2022-11-15T16:42:33;10.93;;;6.45;;
70169;SDS011;57543;45.442;9.212;2022-11-15T16:45:36;13.40;;;7.65;;
70169;SDS011;57543;45.442;9.212;2022-11-15T16:48:40;15.20;;;7.53;;
70169;SDS011;57543;45.442;9.212;2022-11-15T16:51:44;14.65;;;7.68;;
70169;SDS011;57543;45.442;9.212;2022-11-15T16:54:49;14.80;;;7.60;;
70169;SDS011;57543;45.442;9.212;2022-11-15T16:57:52;12.65;;;6.82;;
70169;SDS011;57543;45.442;9.212;2022-11-15T17:00:57;14.82;;;7.35;;
70169;SDS011;57543;45.442;9.212;2022-11-15T17:04:01;14.13;;;7.30;;
70169;SDS011;57543;45.442;9.212;2022-11-15T17:07:14;13.43;;;7.47;;
70169;SDS011;57543;45.442;9.212;2022-11-15T17:10:19;12.63;;;6.87;;
70169;SDS011;57543;45.442;9.212;2022-11-15T17:13:24;11.88;;;6.88;;
70169;SDS011;57543;45.442;9.212;2022-11-15T17:16:27;13.02;;;7.10;;
70169;SDS011;57543;45.442;9.212;2022-11-15T17:19:31;15.20;;;7.60;;
70169;SDS011;57543;45.442;9.212;2022-11-15T17:22:36;14.45;;;8.07;;
70169;SDS011;57543;45.442;9.212;2022-11-15T17:25:40;12.07;;;6.80;;
70169;SDS011;57543;45.442;9.212;2022-11-15T17:28:44;14.30;;;8.05;;
70169;SDS011;57543;45.442;9.212;2022-11-15T17:31:47;14.75;;;8.40;;
70169;SDS011;57543;45.442;9.212;2022-11-15T17:34:51;16.42;;;9.50;;
70169;SDS011;57543;45.442;9.212;2022-11-15T17:37:55;24.90;;;14.07;;
70169;SDS011;57543;45.442;9.212;2022-11-15T17:44:04;38.38;;;20.45;;
70169;SDS011;57543;45.442;9.212;2022-11-15T17:47:08;46.40;;;25.13;;
70169;SDS011;57543;45.442;9.212;2022-11-15T17:50:12;51.70;;;26.75;;
70169;SDS011;57543;45.442;9.212;2022-11-15T17:53:16;46.75;;;24.70;;
70169;SDS011;57543;45.442;9.212;2022-11-15T17:56:21;40.93;;;21.70;;
70169;SDS011;57543;45.442;9.212;2022-11-15T17:59:28;31.55;;;16.70;;
70169;SDS011;57543;45.442;9.212;2022-11-15T18:02:32;25.95;;;13.27;;
70169;SDS011;57543;45.442;9.212;2022-11-15T18:05:35;20.35;;;11.10;;
70169;SDS011;57543;45.442;9.212;2022-11-15T18:08:39;18.63;;;9.60;;
70169;SDS011;57543;45.442;9.212;2022-11-15T18:11:45;17.70;;;8.97;;
70169;SDS011;57543;45.442;9.212;2022-11-15T18:14:53;17.05;;;8.98;;
70169;SDS011;57543;45.442;9.212;2022-11-15T18:17:57;17.30;;;9.55;;
70169;SDS011;57543;45.442;9.212;2022-11-15T18:21:09;16.52;;;8.25;;
70169;SDS011;57543;45.442;9.212;2022-11-15T18:24:14;14.98;;;7.95;;
70169;SDS011;57543;45.442;9.212;2022-11-15T18:27:18;14.90;;;7.90;;
70169;SDS011;57543;45.442;9.212;2022-11-15T18:30:21;15.00;;;7.95;;
70169;SDS011;57543;45.442;9.212;2022-11-15T18:33:25;14.55;;;7.65;;
70169;SDS011;57543;45.442;9.212;2022-11-15T18:36:30;14.32;;;8.10;;
70169;SDS011;57543;45.442;9.212;2022-11-15T18:39:33;13.35;;;7.47;;
70169;SDS011;57543;45.442;9.212;2022-11-15T18:42:37;16.83;;;8.20;;
70169;SDS011;57543;45.442;9.212;2022-11-15T18:45:41;14.15;;;8.02;;
70169;SDS011;57543;45.442;9.212;2022-11-15T18:48:45;14.57;;;7.78;;
70169;SDS011;57543;45.442;9.212;2022-11-15T18:51:49;15.05;;;7.82;;
70169;SDS011;57543;45.442;9.212;2022-11-15T18:54:53;14.30;;;8.10;;
70169;SDS011;57543;45.442;9.212;2022-11-15T18:57:57;14.40;;;7.50;;
70169;SDS011;57543;45.442;9.212;2022-11-15T19:01:20;12.80;;;7.75;;
70169;SDS011;57543;45.442;9.212;2022-11-15T19:04:26;15.13;;;8.10;;
70169;SDS011;57543;45.442;9.212;2022-11-15T19:07:29;13.50;;;7.25;;
70169;SDS011;57543;45.442;9.212;2022-11-15T19:10:33;13.68;;;7.45;;
70169;SDS011;57543;45.442;9.212;2022-11-15T19:13:37;12.57;;;7.13;;
70169;SDS011;57543;45.442;9.212;2022-11-15T19:16:42;14.57;;;7.90;;
70169;SDS011;57543;45.442;9.212;2022-11-15T19:19:47;12.93;;;7.07;;
70169;SDS011;57543;45.442;9.212;2022-11-15T19:22:51;14.27;;;7.68;;
70169;SDS011;57543;45.442;9.212;2022-11-15T19:25:55;13.95;;;7.53;;
70169;SDS011;57543;45.442;9.212;2022-11-15T19:29:01;13.87;;;7.53;;
70169;SDS011;57543;45.442;9.212;2022-11-15T19:32:04;15.18;;;8.13;;
70169;SDS011;57543;45.442;9.212;2022-11-15T19:35:08;12.70;;;7.45;;
70169;SDS011;57543;45.442;9.212;2022-11-15T19:38:12;13.07;;;7.93;;
70169;SDS011;57543;45.442;9.212;2022-11-15T19:41:19;12.27;;;7.40;;
70169;SDS011;57543;45.442;9.212;2022-11-15T19:44:24;12.10;;;7.13;;
70169;SDS011;57543;45.442;9.212;2022-11-15T19:47:29;12.75;;;7.00;;
70169;SDS011;57543;45.442;9.212;2022-11-15T19:50:35;12.43;;;7.30;;
70169;SDS011;57543;45.442;9.212;2022-11-15T19:53:39;13.50;;;7.22;;
70169;SDS011;57543;45.442;9.212;2022-11-15T19:56:44;14.43;;;7.82;;
70169;SDS011;57543;45.442;9.212;2022-11-15T19:59:47;11.53;;;6.73;;
70169;SDS011;57543;45.442;9.212;2022-11-15T20:02:51;12.82;;;7.68;;
70169;SDS011;57543;45.442;9.212;2022-11-15T20:06:05;13.45;;;7.90;;
70169;SDS011;57543;45.442;9.212;2022-11-15T20:09:11;15.45;;;7.95;;
70169;SDS011;57543;45.442;9.212;2022-11-15T20:12:17;13.55;;;7.78;;
70169;SDS011;57543;45.442;9.212;2022-11-15T20:15:20;15.33;;;8.07;;
70169;SDS011;57543;45.442;9.212;2022-11-15T20:18:24;14.95;;;7.88;;
70169;SDS011;57543;45.442;9.212;2022-11-15T20:21:30;15.98;;;8.77;;
70169;SDS011;57543;45.442;9.212;2022-11-15T20:24:33;14.93;;;8.10;;
70169;SDS011;57543;45.442;9.212;2022-11-15T20:27:37;14.27;;;7.60;;
70169;SDS011;57543;45.442;9.212;2022-11-15T20:30:42;14.13;;;7.77;;
70169;SDS011;57543;45.442;9.212;2022-11-15T20:33:47;14.27;;;7.65;;
70169;SDS011;57543;45.442;9.212;2022-11-15T20:36:54;13.68;;;7.93;;
70169;SDS011;57543;45.442;9.212;2022-11-15T20:39:58;14.68;;;7.75;;
70169;SDS011;57543;45.442;9.212;2022-11-15T20:43:01;15.88;;;8.23;;